Time;durP1;ratioP1;P1;durP2;ratioP2;P2;SDS_P1;SDS_P2;PMS_P1;PMS_P2;Temp;Humidity;BMP_temperature;BMP_pressure;BME280_temperature;BME280_humidity;BME280_pressure;Samples;Min_cycle;Max_cycle;Signal;HPM_P1;HPM_P2
2023/04/26 00:01:10;;;;;;;;;32.50;29.75;;;;;11.42;47.42;98489.25;5070919;28;8948;-79
2023/04/26 00:03:39;;;;;;;;;31.25;31.25;;;;;11.49;47.97;98487.22;5038061;28;8851;-78
2023/04/26 00:06:13;;;;;;;;;37.50;31.00;;;;;11.43;47.77;98483.06;5122589;27;8840;-80
2023/04/26 00:08:42;;;;;;;;;29.50;28.75;;;;;11.46;47.78;98480.28;5087878;28;8991;-80
2023/04/26 00:11:11;;;;;;;;;31.75;31.00;;;;;11.48;47.36;98485.50;5088602;28;8848;-79
2023/04/26 00:13:40;;;;;;;;;37.25;30.75;;;;;11.50;47.71;98486.28;5099377;28;8862;-80
2023/04/26 00:16:09;;;;;;;;;28.40;27.80;;;;;11.45;47.72;98493.53;5076746;28;8865;-80
2023/04/26 00:18:37;;;;;;;;;29.50;29.50;;;;;11.46;47.58;98496.09;5078311;28;8981;-78
2023/04/26 00:21:06;;;;;;;;;31.00;29.75;;;;;11.43;48.17;98490.13;5069808;28;8858;-78
2023/04/26 00:23:36;;;;;;;;;34.25;32.50;;;;;11.36;47.79;98490.34;5087324;28;8843;-83
2023/04/26 00:26:06;;;;;;;;;29.50;27.25;;;;;11.33;48.35;98494.88;5089708;28;8860;-78
2023/04/26 00:28:35;;;;;;;;;29.00;26.25;;;;;11.31;48.88;98494.09;5088415;28;8843;-79
2023/04/26 00:31:04;;;;;;;;;28.50;28.00;;;;;11.31;48.90;98494.97;5088466;28;8840;-79
2023/04/26 00:33:33;;;;;;;;;22.00;22.00;;;;;11.27;49.45;98495.13;5089439;28;8936;-79
2023/04/26 00:36:02;;;;;;;;;25.00;23.80;;;;;11.33;48.71;98489.63;5088416;28;8976;-79
2023/04/26 00:38:31;;;;;;;;;24.00;22.20;;;;;11.29;49.37;98502.03;5086885;28;8932;-80
2023/04/26 00:41:02;;;;;;;;;22.60;20.80;;;;;11.24;49.69;98497.88;5054258;28;8867;-79
2023/04/26 00:43:31;;;;;;;;;28.75;28.00;;;;;10.87;50.78;98497.56;5089103;28;8875;-80
2023/04/26 00:46:00;;;;;;;;;20.80;20.60;;;;;10.84;51.06;98505.59;5071591;28;8863;-77
2023/04/26 00:48:29;;;;;;;;;17.20;17.20;;;;;10.88;51.48;98501.94;5071224;28;8836;-80
2023/04/26 00:50:58;;;;;;;;;18.60;15.00;;;;;10.95;50.74;98500.78;5087910;28;8832;-82
2023/04/26 00:53:27;;;;;;;;;21.20;20.40;;;;;10.93;50.98;98499.94;5070855;28;8852;-79
2023/04/26 00:55:58;;;;;;;;;20.00;20.00;;;;;10.93;50.94;98507.84;5089140;28;8843;-81
2023/04/26 00:58:29;;;;;;;;;21.00;17.60;;;;;11.02;51.41;98518.94;5070538;28;8864;-78
2023/04/26 01:00:59;;;;;;;;;18.00;17.60;;;;;11.04;50.93;98517.94;5088617;28;8944;-78
2023/04/26 01:03:29;;;;;;;;;21.20;21.20;;;;;11.07;51.96;98525.72;5087827;28;8886;-80
2023/04/26 01:05:59;;;;;;;;;22.80;21.80;;;;;11.12;51.55;98523.78;5070590;28;8843;-80
2023/04/26 01:08:28;;;;;;;;;21.60;19.40;;;;;11.20;51.09;98530.50;5069585;28;8905;-78
2023/04/26 01:10:59;;;;;;;;;19.80;17.80;;;;;11.25;51.10;98533.81;5070095;28;8855;-79
2023/04/26 01:13:32;;;;;;;;;22.60;21.20;;;;;11.31;50.83;98541.44;5087145;28;8883;-79
2023/04/26 01:16:02;;;;;;;;;19.20;18.00;;;;;11.24;51.58;98548.75;5053405;28;8875;-78
2023/04/26 01:18:31;;;;;;;;;14.40;14.00;;;;;11.25;51.30;98558.31;5070348;28;9633;-80
2023/04/26 01:21:00;;;;;;;;;10.60;10.40;;;;;11.22;51.65;98570.75;5087311;28;8876;-82
2023/04/26 01:23:32;;;;;;;;;14.40;13.60;;;;;11.20;51.94;98578.72;5088657;28;8887;-79
2023/04/26 01:26:01;;;;;;;;;15.40;14.40;;;;;11.19;51.99;98574.34;5086748;28;8839;-79
2023/04/26 01:28:30;;;;;;;;;18.00;16.60;;;;;11.23;52.25;98578.56;5087511;28;8860;-78
2023/04/26 01:30:59;;;;;;;;;16.80;15.80;;;;;11.22;52.00;98574.25;5085171;28;8840;-79
2023/04/26 01:33:27;;;;;;;;;16.80;16.40;;;;;11.24;52.15;98571.53;5086445;28;8878;-78
2023/04/26 01:35:56;;;;;;;;;20.40;19.20;;;;;11.24;52.00;98588.19;5084576;28;8956;-80
2023/04/26 01:38:25;;;;;;;;;23.60;22.60;;;;;11.26;52.13;98589.00;5101481;28;8863;-77
2023/04/26 01:40:56;;;;;;;;;23.80;22.80;;;;;11.27;52.24;98580.16;5088827;28;8839;-81
2023/04/26 01:43:25;;;;;;;;;23.00;22.40;;;;;11.24;52.57;98580.31;5086665;28;8852;-79
2023/04/26 01:45:54;;;;;;;;;24.00;23.20;;;;;11.14;52.56;98590.34;5070682;28;8836;-78
2023/04/26 01:48:30;;;;;;;;;25.20;22.60;;;;;11.07;52.93;98594.09;5088548;28;8855;-79
2023/04/26 01:51:02;;;;;;;;;24.20;23.40;;;;;11.07;52.88;98594.09;5087118;28;8855;-78
2023/04/26 01:53:31;;;;;;;;;29.60;26.00;;;;;10.95;53.67;98587.56;5087217;28;8867;-78
2023/04/26 01:56:02;;;;;;;;;23.60;22.20;;;;;11.04;53.39;98596.84;5120223;28;9582;-79
2023/04/26 01:58:32;;;;;;;;;25.80;25.80;;;;;10.97;53.12;98588.34;5071077;28;8870;-79
2023/04/26 02:01:06;;;;;;;;;28.00;26.00;;;;;11.04;53.28;98582.84;5087980;28;8855;-79
2023/04/26 02:03:35;;;;;;;;;25.00;23.80;;;;;10.97;52.96;98580.47;5103121;28;8856;-78
2023/04/26 02:06:04;;;;;;;;;26.80;26.20;;;;;10.93;53.36;98586.72;5105611;28;8843;-79
2023/04/26 02:08:33;;;;;;;;;26.00;25.80;;;;;10.92;53.25;98592.91;5087160;28;8884;-78
2023/04/26 02:11:04;;;;;;;;;26.80;26.00;;;;;10.92;53.37;98585.03;5125451;27;8867;-78
2023/04/26 02:13:33;;;;;;;;;30.40;27.40;;;;;10.96;53.61;98585.78;5108506;28;8990;-78
2023/04/26 02:16:03;;;;;;;;;20.20;20.00;;;;;10.95;53.81;98584.94;5090789;28;8848;-78
2023/04/26 02:18:32;;;;;;;;;20.60;20.60;;;;;10.92;53.53;98584.19;5091165;28;8848;-81
2023/04/26 02:21:01;;;;;;;;;23.00;21.40;;;;;10.92;53.42;98585.03;5090851;28;8856;-78
2023/04/26 02:23:31;;;;;;;;;23.00;22.60;;;;;10.85;53.84;98583.53;5092373;28;8862;-78
2023/04/26 02:26:00;;;;;;;;;30.60;24.00;;;;;10.84;54.76;98591.47;5090649;28;8960;-79
2023/04/26 02:28:31;;;;;;;;;26.60;23.40;;;;;10.79;54.81;98589.03;5090593;28;8851;-79
2023/04/26 02:31:02;;;;;;;;;22.20;22.20;;;;;10.78;54.60;98596.06;5090213;28;8832;-82
2023/04/26 02:33:31;;;;;;;;;20.60;20.00;;;;;10.77;54.42;98594.34;5124307;27;8848;-77
2023/04/26 02:36:03;;;;;;;;;24.00;24.00;;;;;10.74;54.78;98604.09;5124127;27;8876;-80
2023/04/26 02:38:34;;;;;;;;;22.60;19.60;;;;;10.75;54.41;98595.31;5122888;27;9655;-79
2023/04/26 02:41:05;;;;;;;;;20.00;19.00;;;;;10.76;54.94;98607.53;5073736;28;8816;-78
2023/04/26 02:43:36;;;;;;;;;23.40;21.40;;;;;10.74;54.67;98614.63;5073385;28;8942;-78
2023/04/26 02:46:07;;;;;;;;;20.00;18.80;;;;;10.78;54.74;98610.97;5091648;28;8851;-78
2023/04/26 02:48:36;;;;;;;;;20.00;18.60;;;;;10.68;54.86;98617.44;5089939;28;8851;-80
2023/04/26 02:51:06;;;;;;;;;23.60;21.80;;;;;10.72;55.23;98624.31;5090178;28;8859;-79
2023/04/26 02:53:35;;;;;;;;;20.40;16.40;;;;;10.70;55.46;98620.88;5072885;28;8852;-78
2023/04/26 02:56:04;;;;;;;;;17.60;13.80;;;;;10.69;55.62;98629.66;5073569;28;8932;-79
2023/04/26 02:58:36;;;;;;;;;18.80;17.20;;;;;10.75;55.33;98627.72;5124360;27;8844;-79
2023/04/26 03:01:07;;;;;;;;;18.20;17.20;;;;;10.84;54.92;98629.16;5090415;28;8944;-77
2023/04/26 03:03:36;;;;;;;;;23.60;19.00;;;;;10.86;54.84;98629.97;5090058;28;9605;-78
2023/04/26 03:06:06;;;;;;;;;17.20;16.80;;;;;10.88;54.91;98630.75;5090189;28;8998;-80
2023/04/26 03:08:35;;;;;;;;;20.00;19.60;;;;;10.90;54.96;98626.31;5091027;28;8979;-81
2023/04/26 03:11:05;;;;;;;;;17.60;17.60;;;;;10.93;54.83;98625.31;5123048;27;8863;-79
2023/04/26 03:13:36;;;;;;;;;20.00;19.00;;;;;10.91;55.09;98627.16;5089771;28;8844;-78
2023/04/26 03:16:06;;;;;;;;;19.20;18.20;;;;;10.94;55.08;98635.78;5089821;28;8936;-79
2023/04/26 03:18:37;;;;;;;;;19.60;18.40;;;;;10.89;55.18;98639.50;5106881;28;8824;-79
2023/04/26 03:21:07;;;;;;;;;17.80;17.20;;;;;10.90;55.53;98644.69;5088267;28;8875;-78
2023/04/26 03:23:36;;;;;;;;;20.40;18.20;;;;;10.86;55.41;98645.75;5089174;28;8863;-78
2023/04/26 03:26:05;;;;;;;;;19.80;19.00;;;;;10.77;56.01;98653.94;5072863;28;8924;-80
2023/04/26 03:28:35;;;;;;;;;33.50;29.00;;;;;10.77;56.85;98659.22;5090706;28;8911;-78
2023/04/26 03:31:04;;;;;;;;;47.00;38.50;;;;;10.78;55.96;98661.78;5089515;28;8860;-79
2023/04/26 03:33:33;;;;;;;;;32.00;28.75;;;;;10.78;56.08;98658.28;5073201;28;8847;-79
2023/04/26 03:36:02;;;;;;;;;24.00;21.00;;;;;10.76;56.62;98666.25;5073353;28;8852;-81
2023/04/26 03:38:31;;;;;;;;;18.80;17.40;;;;;10.64;57.03;98671.91;5088945;28;8955;-78
2023/04/26 03:41:00;;;;;;;;;20.20;18.80;;;;;10.62;57.34;98675.50;5089670;28;8864;-77
2023/04/26 03:43:31;;;;;;;;;20.40;19.00;;;;;10.65;57.11;98685.88;5123466;27;8844;-78
2023/04/26 03:46:02;;;;;;;;;22.60;21.80;;;;;10.59;57.76;98689.59;5089663;28;8859;-79
2023/04/26 03:48:31;;;;;;;;;23.00;21.00;;;;;10.44;58.26;98690.13;5096465;28;8836;-80
2023/04/26 03:51:02;;;;;;;;;21.60;21.60;;;;;10.53;58.23;98692.44;5100653;28;8871;-80
2023/04/26 03:53:31;;;;;;;;;26.40;26.40;;;;;10.61;57.92;98698.28;5038191;28;8848;-78
2023/04/26 03:56:00;;;;;;;;;50.00;42.75;;;;;10.10;59.66;98704.38;5072838;28;8856;-77
2023/04/26 03:58:30;;;;;;;;;33.60;27.80;;;;;9.55;62.10;98701.69;5123173;27;8882;-77
2023/04/26 04:01:00;;;;;;;;;28.00;26.40;;;;;8.56;65.94;98716.72;5122726;27;8866;-79
2023/04/26 04:03:31;;;;;;;;;29.20;26.40;;;;;8.03;69.11;98715.34;5122932;27;8863;-78
2023/04/26 04:06:20;;;;;;;;;23.60;23.60;;;;;7.55;70.67;98717.31;5019662;28;8872;-76
2023/04/26 04:08:50;;;;;;;;;26.40;24.60;;;;;7.05;73.19;98733.19;5027079;28;8895;-77
2023/04/26 04:11:20;;;;;;;;;24.20;21.00;;;;;6.98;73.65;98732.44;4995469;28;8864;-78
2023/04/26 04:13:48;;;;;;;;;22.80;21.20;;;;;6.84;74.80;98742.25;5027253;28;8840;-78
2023/04/26 04:16:18;;;;;;;;;25.60;23.20;;;;;6.88;74.08;98736.94;5027702;28;8882;-79
2023/04/26 04:18:48;;;;;;;;;24.00;22.00;;;;;6.85;75.40;98751.81;5013819;28;9737;-79
2023/04/26 04:21:17;;;;;;;;;27.40;26.60;;;;;7.38;73.39;98747.34;5030387;28;8854;-78
2023/04/26 04:23:46;;;;;;;;;29.75;28.50;;;;;7.53;71.49;98747.88;5018874;28;8908;-78
2023/04/26 04:26:16;;;;;;;;;31.75;27.25;;;;;7.94;69.98;98751.34;5070020;28;8888;-79
2023/04/26 04:28:46;;;;;;;;;32.25;27.25;;;;;8.41;68.65;98741.53;5066656;28;8860;-80
2023/04/26 04:31:16;;;;;;;;;31.00;30.75;;;;;8.55;67.36;98739.41;5033268;28;8904;-79
2023/04/26 04:33:45;;;;;;;;;38.75;35.25;;;;;8.58;66.89;98746.34;5049221;28;9706;-79
2023/04/26 04:36:16;;;;;;;;;38.75;34.25;;;;;8.76;65.73;98756.34;5049791;28;8866;-78
2023/04/26 04:38:46;;;;;;;;;66.50;55.00;;;;;8.47;65.94;98758.84;5068001;28;8849;-79
2023/04/26 04:41:19;;;;;;;;;58.75;49.00;;;;;8.84;65.14;98766.63;5052891;28;8849;-79
2023/04/26 04:43:48;;;;;;;;;35.50;31.25;;;;;9.04;63.76;98766.97;5087231;28;8869;-78
2023/04/26 04:46:17;;;;;;;;;31.00;27.50;;;;;8.99;62.74;98775.84;5049774;28;8852;-78
2023/04/26 04:48:46;;;;;;;;;32.75;30.50;;;;;9.22;61.58;98778.69;5066306;28;8852;-78
2023/04/26 04:51:16;;;;;;;;;31.60;28.80;;;;;8.92;62.43;98780.38;5049343;28;8836;-78
2023/04/26 04:53:45;;;;;;;;;35.00;31.75;;;;;8.92;61.92;98780.38;5048464;28;8885;-79
2023/04/26 04:56:14;;;;;;;;;27.80;26.40;;;;;8.52;62.84;98781.41;5048995;28;8867;-80
2023/04/26 04:58:43;;;;;;;;;26.00;22.20;;;;;8.92;61.62;98785.63;5048922;28;9093;-79
2023/04/26 05:01:13;;;;;;;;;30.25;25.25;;;;;8.55;62.29;98788.31;5065772;28;8988;-78
2023/04/26 05:03:49;;;;;;;;;22.40;22.00;;;;;7.82;64.81;98802.22;5083452;28;8836;-80
2023/04/26 05:06:21;;;;;;;;;28.25;25.00;;;;;7.32;66.84;98810.19;5063726;28;8954;-79
2023/04/26 05:08:50;;;;;;;;;21.75;20.25;;;;;7.54;65.21;98812.38;5049076;28;8864;-82
2023/04/26 05:11:20;;;;;;;;;24.20;22.00;;;;;7.38;65.11;98817.03;5049547;28;8851;-78
2023/04/26 05:13:49;;;;;;;;;24.60;21.40;;;;;7.12;66.23;98817.53;5065961;28;8883;-78
2023/04/26 05:16:22;;;;;;;;;23.60;21.00;;;;;6.75;67.32;98831.22;5016789;28;8905;-79
2023/04/26 05:18:51;;;;;;;;;26.60;22.60;;;;;6.76;67.53;98830.31;5031894;28;8838;-79
2023/04/26 05:21:22;;;;;;;;;19.40;19.00;;;;;6.58;67.56;98834.97;5032666;28;8923;-80
2023/04/26 05:23:51;;;;;;;;;22.80;18.40;;;;;6.36;68.18;98815.31;5014946;28;8871;-79
2023/04/26 05:26:21;;;;;;;;;27.50;24.75;;;;;6.37;68.67;98832.72;5083737;28;8990;-79
2023/04/26 05:29:00;;;;;;;;;25.75;23.75;;;;;6.38;68.88;98832.69;5088032;28;8970;-77
2023/04/26 05:31:44;;;;;;;;;23.80;18.00;;;;;6.21;69.03;98838.16;5104726;28;8944;-81
2023/04/26 05:34:31;;;;;;;;;21.80;18.80;;;;;6.17;68.52;98846.03;5094679;28;8894;-79
2023/04/26 05:37:01;;;;;;;;;20.00;18.80;;;;;6.03;69.17;98848.84;5006462;28;8862;-80
2023/04/26 05:39:31;;;;;;;;;22.20;21.60;;;;;6.24;69.49;98842.47;4993981;28;8857;-79
2023/04/26 05:42:00;;;;;;;;;19.80;18.80;;;;;6.26;69.09;98848.53;4993754;28;8833;-78
2023/04/26 05:44:29;;;;;;;;;21.00;19.25;;;;;5.85;70.73;98850.84;5003092;28;8864;-77
2023/04/26 05:47:18;;;;;;;;;24.80;19.40;;;;;5.48;71.54;98860.84;5063244;28;8863;-76
2023/04/26 05:49:47;;;;;;;;;26.25;22.00;;;;;5.35;72.47;98870.53;5065307;28;9676;-77
2023/04/26 05:52:17;;;;;;;;;26.50;24.50;;;;;5.43;73.00;98876.50;5044671;28;8850;-76
2023/04/26 05:54:47;;;;;;;;;24.25;22.00;;;;;5.74;71.72;98870.97;5013552;28;8861;-75
2023/04/26 05:57:17;;;;;;;;;25.25;22.25;;;;;5.77;70.81;98878.72;5046173;28;8906;-75
2023/04/26 05:59:47;;;;;;;;;27.50;24.50;;;;;5.47;72.34;98875.63;5028855;28;8842;-80
2023/04/26 06:02:17;;;;;;;;;30.00;28.50;;;;;5.87;70.52;98875.16;5028646;28;8870;-76
2023/04/26 06:04:46;;;;;;;;;23.75;19.75;;;;;5.77;70.89;98872.66;5040660;28;8864;-75
2023/04/26 06:07:19;;;;;;;;;21.50;18.25;;;;;5.78;71.07;98880.47;5050489;28;9054;-77
2023/04/26 06:09:48;;;;;;;;;19.00;18.50;;;;;5.73;71.63;98874.44;5070907;28;8867;-80
2023/04/26 06:12:17;;;;;;;;;26.40;24.40;;;;;5.90;70.98;98888.13;5087759;28;8867;-76
2023/04/26 06:14:47;;;;;;;;;20.75;18.25;;;;;5.81;71.47;98884.78;5063107;28;9728;-76
2023/04/26 06:17:21;;;;;;;;;26.75;26.50;;;;;6.24;70.19;98879.00;5029755;28;8860;-75
2023/04/26 06:19:50;;;;;;;;;23.50;21.00;;;;;6.54;68.53;98882.06;4990800;28;9026;-77
2023/04/26 06:22:21;;;;;;;;;25.75;23.50;;;;;6.10;70.08;98885.28;5007129;28;9045;-78
2023/04/26 06:24:50;;;;;;;;;24.50;22.75;;;;;5.87;71.36;98890.78;5007978;28;8918;-78
2023/04/26 06:27:18;;;;;;;;;27.50;24.00;;;;;5.86;71.25;98898.63;5018599;28;8884;-77
2023/04/26 06:29:49;;;;;;;;;26.75;25.00;;;;;5.76;71.30;98903.09;5008051;28;8895;-76
2023/04/26 06:32:19;;;;;;;;;29.25;27.50;;;;;5.95;70.89;98897.66;5007973;28;8868;-77
2023/04/26 06:34:47;;;;;;;;;28.00;24.50;;;;;6.58;68.67;98902.88;5008638;28;8924;-77
2023/04/26 06:37:16;;;;;;;;;30.75;29.00;;;;;6.85;67.50;98895.47;4992258;28;8907;-75
2023/04/26 06:39:47;;;;;;;;;27.75;25.00;;;;;6.48;69.24;98909.13;5005898;28;8959;-76
2023/04/26 06:42:16;;;;;;;;;30.75;29.25;;;;;6.68;67.98;98896.63;5024688;28;8860;-76
2023/04/26 06:45:04;;;;;;;;;32.00;29.75;;;;;6.48;68.81;98904.75;5026811;28;8852;-76
2023/04/26 06:47:35;;;;;;;;;26.25;23.50;;;;;6.63;68.58;98901.06;5011689;28;8846;-77
2023/04/26 06:50:04;;;;;;;;;29.75;29.25;;;;;6.61;68.93;98896.75;5030350;28;8885;-77
2023/04/26 06:52:33;;;;;;;;;31.75;26.50;;;;;6.76;68.24;98900.84;5065674;28;9612;-77
2023/04/26 06:55:04;;;;;;;;;32.00;25.75;;;;;6.52;69.30;98906.44;5099889;28;8835;-75
2023/04/26 06:57:33;;;;;;;;;29.75;28.00;;;;;6.62;69.85;98914.13;5070516;28;9532;-76
2023/04/26 07:00:04;;;;;;;;;25.50;25.00;;;;;6.85;68.79;98906.81;5070246;28;8846;-76
2023/04/26 07:02:34;;;;;;;;;27.75;24.75;;;;;6.54;69.73;98911.63;5069669;28;8843;-75
2023/04/26 07:05:04;;;;;;;;;30.00;28.25;;;;;6.07;71.36;98913.16;5052246;28;8897;-76
2023/04/26 07:07:33;;;;;;;;;27.00;24.50;;;;;5.99;72.15;98920.22;5086740;28;8891;-75
2023/04/26 07:10:04;;;;;;;;;19.50;14.75;;;;;6.20;71.48;98924.31;5088355;28;9039;-79
2023/04/26 07:12:33;;;;;;;;;31.00;24.75;;;;;6.18;71.93;98926.94;5071160;28;8850;-76
2023/04/26 07:15:01;;;;;;;;;30.25;28.75;;;;;6.21;72.24;98926.00;5005904;28;8926;-76
2023/04/26 07:17:31;;;;;;;;;27.25;25.75;;;;;6.23;71.29;98932.09;5038245;28;8877;-76
2023/04/26 07:20:00;;;;;;;;;33.25;31.75;;;;;5.99;71.44;98934.13;5074044;28;8842;-77
2023/04/26 07:22:29;;;;;;;;;30.50;28.75;;;;;5.96;72.11;98933.28;5062855;28;8881;-76
2023/04/26 07:24:57;;;;;;;;;33.75;30.50;;;;;6.00;71.95;98940.19;5088954;28;8858;-78
2023/04/26 07:27:28;;;;;;;;;26.25;24.00;;;;;6.02;71.84;98938.44;5055473;28;8854;-76
2023/04/26 07:29:56;;;;;;;;;26.50;26.00;;;;;6.16;71.71;98949.56;5054932;28;9006;-77
2023/04/26 07:32:25;;;;;;;;;29.25;27.00;;;;;6.05;71.35;98948.84;5071352;28;9075;-77
2023/04/26 07:34:54;;;;;;;;;37.00;30.00;;;;;6.10;71.19;98960.09;5070533;28;8842;-76
2023/04/26 07:37:23;;;;;;;;;30.25;28.00;;;;;6.16;71.09;98954.78;5047818;28;8866;-76
2023/04/26 07:39:52;;;;;;;;;34.75;31.50;;;;;6.19;71.04;98952.16;5047513;28;9658;-75
2023/04/26 07:42:21;;;;;;;;;28.25;25.75;;;;;6.26;70.49;98958.13;4995127;28;8990;-76
2023/04/26 07:44:51;;;;;;;;;30.00;28.50;;;;;6.42;70.10;98966.66;5027719;28;8860;-74
2023/04/26 07:47:20;;;;;;;;;30.75;29.50;;;;;6.59;69.38;98966.44;5011446;28;8840;-75
2023/04/26 07:49:53;;;;;;;;;28.00;26.75;;;;;6.77;69.49;98971.34;4994404;28;8836;-75
2023/04/26 07:52:22;;;;;;;;;31.00;30.00;;;;;6.95;67.64;98954.59;5011114;28;8860;-74
2023/04/26 07:54:51;;;;;;;;;26.50;24.75;;;;;7.36;66.92;98968.75;5033940;28;8862;-76
2023/04/26 07:57:20;;;;;;;;;29.50;28.00;;;;;7.78;65.11;98971.47;5030757;28;8909;-76
2023/04/26 07:59:48;;;;;;;;;31.25;30.25;;;;;7.72;64.51;98965.47;5030663;28;8878;-76
2023/04/26 08:02:18;;;;;;;;;28.25;26.25;;;;;7.30;65.80;98979.28;5030512;28;8838;-75
2023/04/26 08:04:57;;;;;;;;;31.80;28.00;;;;;7.80;64.82;98974.06;5030144;28;8992;-76
2023/04/26 08:07:26;;;;;;;;;34.40;28.40;;;;;7.71;64.29;98969.00;5011320;28;8864;-75
2023/04/26 08:09:55;;;;;;;;;33.50;30.50;;;;;7.68;64.30;98973.41;5069299;28;9722;-74
2023/04/26 08:12:24;;;;;;;;;30.75;28.75;;;;;7.60;65.56;98977.88;5046897;28;8834;-75
2023/04/26 08:14:53;;;;;;;;;26.20;26.20;;;;;7.39;65.80;98971.28;5046591;28;9954;-75
2023/04/26 08:17:23;;;;;;;;;31.50;28.75;;;;;7.68;64.81;98976.00;5063771;28;9726;-76
2023/04/26 08:19:51;;;;;;;;;32.00;32.00;;;;;7.92;64.22;98980.81;5030739;28;8865;-78
2023/04/26 08:22:20;;;;;;;;;26.75;26.75;;;;;7.87;64.01;98984.38;5066679;28;8966;-75
2023/04/26 08:24:49;;;;;;;;;32.25;30.50;;;;;7.98;63.12;98978.91;5066511;28;8851;-79
2023/04/26 08:27:18;;;;;;;;;32.25;31.00;;;;;7.32;65.58;98987.97;5016732;28;8871;-75
2023/04/26 08:29:47;;;;;;;;;33.75;31.75;;;;;7.21;65.92;98995.09;5033208;28;8855;-75
2023/04/26 08:32:16;;;;;;;;;32.25;30.75;;;;;7.07;66.64;98997.94;5033115;28;8852;-77
2023/04/26 08:34:47;;;;;;;;;34.00;33.50;;;;;6.98;66.98;98998.09;5067376;28;8870;-76
2023/04/26 08:37:16;;;;;;;;;32.00;31.75;;;;;7.53;65.52;98989.34;5066365;28;8871;-77
2023/04/26 08:39:45;;;;;;;;;38.25;36.00;;;;;7.42;66.06;98989.53;5033403;28;8832;-79
2023/04/26 08:42:16;;;;;;;;;39.50;34.75;;;;;7.45;65.72;98994.69;5050919;28;8844;-78
2023/04/26 08:44:45;;;;;;;;;39.00;34.25;;;;;7.31;66.39;98998.47;5068117;28;8849;-77
2023/04/26 08:47:19;;;;;;;;;32.00;29.00;;;;;7.56;65.68;98997.16;5052503;28;8834;-76
2023/04/26 08:49:58;;;;;;;;;32.25;31.75;;;;;7.80;64.58;98990.63;5053002;28;8842;-77
2023/04/26 08:52:31;;;;;;;;;34.75;32.25;;;;;8.33;62.57;98997.50;5069414;28;8873;-78
2023/04/26 08:55:00;;;;;;;;;32.50;32.25;;;;;8.41;63.08;99008.66;5053364;28;9622;-77
2023/04/26 08:57:32;;;;;;;;;22.00;19.50;;;;;8.20;63.00;98999.47;5069574;28;9594;-78
2023/04/26 09:00:04;;;;;;;;;32.50;27.75;;;;;8.30;62.95;99015.84;5086031;28;8888;-76
2023/04/26 09:02:34;;;;;;;;;36.75;35.00;;;;;8.55;62.05;99009.22;5029360;28;8847;-77
2023/04/26 09:05:06;;;;;;;;;41.75;35.00;;;;;8.55;62.59;99009.22;5013608;28;8868;-77
2023/04/26 09:07:42;;;;;;;;;34.50;33.75;;;;;8.99;61.07;99010.00;5041291;28;8871;-76
2023/04/26 09:10:12;;;;;;;;;38.00;35.25;;;;;9.04;60.00;99012.50;4981429;28;8874;-77
2023/04/26 09:12:41;;;;;;;;;33.00;33.00;;;;;8.19;63.53;99021.28;5030013;28;8844;-76
2023/04/26 09:15:11;;;;;;;;;41.50;36.25;;;;;8.36;62.47;99019.22;5030007;28;8855;-79
2023/04/26 09:17:40;;;;;;;;;35.50;34.00;;;;;9.00;61.03;99026.59;4981687;28;8836;-77
2023/04/26 09:20:22;;;;;;;;;35.25;34.25;;;;;9.15;59.98;99017.50;5029621;28;8832;-80
2023/04/26 09:22:52;;;;;;;;;39.00;35.75;;;;;8.89;61.02;99015.47;5045905;28;8972;-78
2023/04/26 09:25:28;;;;;;;;;30.00;27.75;;;;;8.85;61.37;99019.94;5046495;28;8836;-78
2023/04/26 09:27:57;;;;;;;;;39.75;36.75;;;;;8.87;61.04;99018.13;5036205;28;8961;-78
2023/04/26 09:30:27;;;;;;;;;39.75;36.00;;;;;8.79;61.64;99023.53;5016410;28;8830;-80
2023/04/26 09:32:59;;;;;;;;;37.25;35.00;;;;;8.54;62.33;99015.38;5036139;28;8864;-77
2023/04/26 09:35:30;;;;;;;;;37.25;34.25;;;;;8.63;62.43;99020.41;5086956;28;8848;-76
2023/04/26 09:38:02;;;;;;;;;37.75;36.00;;;;;8.83;62.13;99016.47;5085477;28;8822;-76
2023/04/26 09:40:41;;;;;;;;;40.50;36.50;;;;;8.71;61.25;99017.63;5068822;28;9618;-77
2023/04/26 09:43:12;;;;;;;;;35.25;31.75;;;;;9.16;60.50;99008.75;5085695;28;8837;-77
2023/04/26 09:45:48;;;;;;;;;41.75;35.50;;;;;9.10;60.94;99006.25;5068299;28;8919;-78
2023/04/26 09:48:20;;;;;;;;;35.00;33.25;;;;;9.20;60.15;98994.66;5068412;28;9584;-75
2023/04/26 09:50:52;;;;;;;;;33.00;32.50;;;;;9.64;58.88;99002.34;5051983;28;8849;-77
2023/04/26 09:53:29;;;;;;;;;42.00;36.00;;;;;9.78;57.74;98994.97;5035868;28;9635;-79
2023/04/26 09:56:07;;;;;;;;;36.00;34.25;;;;;9.84;57.37;98992.19;5068639;28;8846;-76
2023/04/26 09:58:37;;;;;;;;;19.00;18.50;;;;;9.40;58.54;98999.41;5086242;28;9010;-81
2023/04/26 10:01:08;;;;;;;;;32.75;31.25;;;;;9.10;59.05;99001.00;5051973;28;8876;-78
2023/04/26 10:03:38;;;;;;;;;34.25;34.00;;;;;9.09;59.12;98994.91;5085482;28;8873;-79
2023/04/26 10:06:08;;;;;;;;;39.00;34.25;;;;;8.93;59.40;99004.03;5068463;28;8846;-77
2023/04/26 10:08:37;;;;;;;;;34.50;34.00;;;;;9.51;58.58;98986.88;5070348;28;8849;-74
2023/04/26 10:11:09;;;;;;;;;34.00;31.75;;;;;9.22;59.22;98993.72;5068276;28;8849;-76
2023/04/26 10:13:38;;;;;;;;;32.75;32.75;;;;;10.05;56.29;98980.25;5036082;28;8854;-78
2023/04/26 10:16:08;;;;;;;;;30.00;29.50;;;;;10.17;54.15;98982.50;5068285;28;8869;-77
2023/04/26 10:18:38;;;;;;;;;31.50;31.50;;;;;10.05;54.53;98988.13;5068539;28;8974;-75
2023/04/26 10:21:20;;;;;;;;;31.00;30.25;;;;;10.50;52.93;98977.19;5085008;28;8987;-77
2023/04/26 10:23:50;;;;;;;;;28.75;28.75;;;;;11.37;51.63;98973.59;5085320;28;8850;-77
2023/04/26 10:26:50;;;;;;;;;30.00;29.25;;;;;10.93;50.33;98973.25;5102518;28;8850;-78
2023/04/26 10:29:20;;;;;;;;;34.50;32.75;;;;;10.60;53.16;98977.78;5028326;28;8987;-78
2023/04/26 10:32:10;;;;;;;;;38.75;35.75;;;;;10.75;50.55;98987.84;4999171;28;8853;-78
2023/04/26 10:34:40;;;;;;;;;32.75;30.25;;;;;11.16;50.97;98972.53;5048604;28;8892;-77
2023/04/26 10:37:12;;;;;;;;;36.50;35.00;;;;;11.15;50.64;98980.47;5032059;28;10019;-77
2023/04/26 10:39:42;;;;;;;;;38.25;32.75;;;;;11.47;49.89;98971.53;5015939;28;8831;-79
2023/04/26 10:42:24;;;;;;;;;31.25;29.25;;;;;11.57;48.11;98970.28;5048609;28;9020;-78
2023/04/26 10:44:55;;;;;;;;;33.25;29.25;;;;;11.32;47.96;98977.31;5015738;28;8931;-77
2023/04/26 10:47:31;;;;;;;;;27.00;26.50;;;;;10.84;47.13;98970.94;5032330;28;8862;-76
2023/04/26 10:50:06;;;;;;;;;28.25;27.25;;;;;11.09;46.44;98972.78;5032284;28;8864;-80
2023/04/26 10:52:36;;;;;;;;;29.40;25.60;;;;;11.63;45.10;98960.47;5040183;28;8878;-78
2023/04/26 10:55:07;;;;;;;;;24.60;24.00;;;;;11.02;45.86;98971.28;5019952;28;8862;-76
2023/04/26 10:57:51;;;;;;;;;28.60;26.80;;;;;11.25;46.29;98976.63;4999910;28;8970;-76
2023/04/26 11:00:26;;;;;;;;;33.50;29.25;;;;;11.12;47.08;98968.31;5032170;28;8854;-78
2023/04/26 11:03:11;;;;;;;;;25.50;24.25;;;;;11.13;46.70;98971.78;5000877;28;8889;-78
2023/04/26 11:06:06;;;;;;;;;29.75;28.50;;;;;10.93;46.38;98964.53;5053657;28;8954;-78
2023/04/26 11:08:36;;;;;;;;;34.50;32.50;;;;;11.20;44.42;98972.44;5069830;28;8881;-76
2023/04/26 11:11:10;;;;;;;;;24.75;22.25;;;;;11.34;42.92;98981.59;5071627;28;8923;-78
2023/04/26 11:13:40;;;;;;;;;27.60;26.00;;;;;11.05;43.13;98963.25;5081708;28;8860;-77
2023/04/26 11:16:11;;;;;;;;;24.80;23.40;;;;;11.07;43.18;98951.81;5039351;28;9001;-77
2023/04/26 11:18:41;;;;;;;;;26.00;26.00;;;;;11.93;41.94;98961.19;5091313;28;8855;-77
2023/04/26 11:21:14;;;;;;;;;25.60;21.60;;;;;12.35;40.65;98973.69;5090365;28;8943;-80
2023/04/26 11:23:53;;;;;;;;;24.20;23.80;;;;;12.49;38.43;98967.91;5089768;28;9644;-77
2023/04/26 11:26:23;;;;;;;;;23.20;20.40;;;;;11.65;40.42;98993.72;5089982;28;8839;-78
2023/04/26 11:28:52;;;;;;;;;23.80;22.80;;;;;11.59;41.16;98985.19;5073005;28;8970;-78
2023/04/26 11:31:21;;;;;;;;;19.20;16.60;;;;;11.70;41.19;98976.00;5089438;28;9013;-77
2023/04/26 11:33:50;;;;;;;;;20.40;19.40;;;;;11.45;41.99;98978.59;5106922;28;8844;-77
2023/04/26 11:36:19;;;;;;;;;25.80;23.80;;;;;11.31;42.90;98976.44;5089659;28;9601;-77
2023/04/26 11:38:50;;;;;;;;;26.60;24.40;;;;;10.76;44.01;98984.34;5048535;28;8851;-78
2023/04/26 11:41:22;;;;;;;;;25.60;25.60;;;;;10.58;44.50;98979.59;5048480;28;8856;-79
2023/04/26 11:43:51;;;;;;;;;28.20;25.20;;;;;10.76;43.73;98973.81;5048384;28;8956;-79
2023/04/26 11:46:22;;;;;;;;;22.80;22.20;;;;;10.86;42.14;98963.88;5032181;28;8820;-80